createdAt,value
2019-05-28T00:00:16.483Z,100707.45
2019-05-28T00:02:45.930Z,100705.05
2019-05-28T00:05:16.383Z,100692.80
2019-05-28T00:07:45.669Z,100694.61
2019-05-28T00:10:15.346Z,100688.74
2019-05-28T00:12:44.851Z,100682.23
2019-05-28T00:15:15.444Z,100684.05
2019-05-28T00:17:44.751Z,100688.41
2019-05-28T00:20:14.482Z,100683.25
2019-05-28T00:22:43.777Z,100680.28
2019-05-28T00:25:13.256Z,100671.99
2019-05-28T00:27:42.632Z,100662.62
2019-05-28T00:30:19.639Z,100660.73
2019-05-28T00:32:43.203Z,100657.52
2019-05-28T00:35:13.855Z,100657.83
2019-05-28T00:37:43.136Z,100650.86
2019-05-28T00:40:12.886Z,100642.02
2019-05-28T00:42:42.377Z,100642.56
2019-05-28T00:45:12.163Z,100637.23
2019-05-28T00:47:41.479Z,100635.95
2019-05-28T00:50:11.412Z,100631.89
2019-05-28T00:52:41.366Z,100637.46
2019-05-28T00:55:12.669Z,100626.19
2019-05-28T00:57:44.732Z,100629.52
2019-05-28T01:00:14.553Z,100623.27
2019-05-28T01:02:44.040Z,100628.53
2019-05-28T01:05:13.716Z,100621.56
2019-05-28T01:07:43.014Z,100625.43
2019-05-28T01:10:12.461Z,100627.02
2019-05-28T01:12:41.784Z,100628.65
2019-05-28T01:15:11.256Z,100629.34
2019-05-28T01:17:40.727Z,100636.45
2019-05-28T01:20:10.177Z,100633.49
2019-05-28T01:22:39.665Z,100635.44
2019-05-28T01:25:09.580Z,100635.63
2019-05-28T01:27:39.117Z,100632.26
2019-05-28T01:30:08.578Z,100629.22
2019-05-28T01:32:37.903Z,100626.15
2019-05-28T01:35:07.725Z,100624.94
2019-05-28T01:37:38.058Z,100620.31
2019-05-28T01:40:07.758Z,100618.64
2019-05-28T01:42:37.153Z,100599.89
2019-05-28T01:45:07.461Z,100601.45
2019-05-28T01:47:36.944Z,100597.94
2019-05-28T01:50:10.090Z,100599.14
2019-05-28T01:52:39.550Z,100598.47
2019-05-28T01:55:09.474Z,100601.73
2019-05-28T01:57:38.795Z,100606.01
2019-05-28T02:00:09.024Z,100600.61
2019-05-28T02:02:40.598Z,100595.02
2019-05-28T02:05:10.449Z,100592.94
2019-05-28T02:07:39.752Z,100592.13
2019-05-28T02:10:09.597Z,100592.50
2019-05-28T02:12:39.922Z,100590.14
2019-05-28T02:15:10.348Z,100587.51
2019-05-28T02:17:39.672Z,100581.58
2019-05-28T02:20:10.306Z,100578.97
2019-05-28T02:22:39.701Z,100579.66
2019-05-28T02:25:09.656Z,100575.38
2019-05-28T02:27:39.021Z,100579.20
2019-05-28T02:30:10.337Z,100580.16
2019-05-28T02:32:39.694Z,100582.52
2019-05-28T02:35:09.923Z,100585.93
2019-05-28T02:37:39.234Z,100580.97
2019-05-28T02:40:08.914Z,100581.90
2019-05-28T02:42:38.283Z,100583.58
2019-05-28T02:45:11.433Z,100590.38
2019-05-28T02:47:40.743Z,100594.03
2019-05-28T02:50:10.698Z,100594.99
2019-05-28T02:52:40.277Z,100601.63
2019-05-28T02:55:10.335Z,100610.79
2019-05-28T02:57:41.411Z,100609.83
2019-05-28T03:00:15.553Z,100609.58
2019-05-28T03:02:48.165Z,100612.55
2019-05-28T03:05:18.029Z,100618.58
2019-05-28T03:07:49.253Z,100615.41
2019-05-28T03:10:24.474Z,100610.88
2019-05-28T03:12:53.791Z,100611.56
2019-05-28T03:15:23.099Z,100616.98
2019-05-28T03:17:52.485Z,100618.30
2019-05-28T03:20:21.974Z,100617.82
2019-05-28T03:22:52.172Z,100616.61
2019-05-28T03:25:22.811Z,100615.45
2019-05-28T03:27:52.086Z,100617.23
2019-05-28T03:30:21.542Z,100615.20
2019-05-28T03:32:50.857Z,100609.92
2019-05-28T03:35:20.187Z,100610.66
2019-05-28T03:37:49.634Z,100607.30
2019-05-28T03:40:29.750Z,100603.44
2019-05-28T03:42:59.076Z,100605.06
2019-05-28T03:45:28.364Z,100594.58
2019-05-28T03:47:57.677Z,100597.32
2019-05-28T03:50:27.330Z,100600.42
2019-05-28T03:52:56.883Z,100594.02
2019-05-28T03:55:26.269Z,100595.38
2019-05-28T03:57:55.633Z,100592.05
2019-05-28T04:00:26.434Z,100596.95
2019-05-28T04:02:55.741Z,100593.95
2019-05-28T04:05:25.211Z,100597.81
2019-05-28T04:07:54.529Z,100599.70
2019-05-28T04:10:23.846Z,100604.17
2019-05-28T04:12:53.161Z,100605.22
2019-05-28T04:15:22.474Z,100600.78
2019-05-28T04:17:51.964Z,100608.12
2019-05-28T04:20:21.277Z,100608.91
2019-05-28T04:22:51.781Z,100617.19
2019-05-28T04:25:22.545Z,100618.78
2019-05-28T04:27:51.856Z,100620.52
2019-05-28T04:30:21.172Z,100623.31
2019-05-28T04:32:50.485Z,100624.12
2019-05-28T04:35:19.784Z,100621.49
2019-05-28T04:37:49.095Z,100626.83
2019-05-28T04:40:18.482Z,100623.44
2019-05-28T04:42:47.789Z,100619.94
2019-05-28T04:45:17.156Z,100612.97
2019-05-28T04:47:46.453Z,100610.13
2019-05-28T04:50:15.829Z,100610.43
2019-05-28T04:52:45.134Z,100612.41
2019-05-28T04:55:14.769Z,100616.13
2019-05-28T04:57:44.076Z,100620.69
2019-05-28T05:00:14.024Z,100623.72
2019-05-28T05:02:57.711Z,100624.64
2019-05-28T05:05:14.677Z,100626.73
2019-05-28T05:07:43.988Z,100625.23
2019-05-28T05:10:14.356Z,100620.81
2019-05-28T05:12:43.868Z,100617.17
2019-05-28T05:15:13.381Z,100625.88
2019-05-28T05:17:42.694Z,100632.39
2019-05-28T05:20:14.735Z,100630.80
2019-05-28T05:22:47.182Z,100635.53
2019-05-28T05:25:18.129Z,100639.12
2019-05-28T05:27:47.670Z,100636.06
2019-05-28T05:30:17.019Z,100634.94
2019-05-28T05:32:46.325Z,100642.45
2019-05-28T05:35:16.246Z,100645.05
2019-05-28T05:37:45.552Z,100646.02
2019-05-28T05:40:15.579Z,100635.59
2019-05-28T05:42:45.088Z,100634.05
2019-05-28T05:45:14.449Z,100632.10
2019-05-28T05:47:46.109Z,100632.30
2019-05-28T05:50:16.472Z,100632.38
2019-05-28T05:52:46.423Z,100631.28
2019-05-28T05:55:15.876Z,100623.93
2019-05-28T05:57:46.267Z,100627.31
2019-05-28T06:00:17.677Z,100630.98
2019-05-28T06:02:46.989Z,100633.73
2019-05-28T06:05:16.716Z,100624.78
2019-05-28T06:07:46.041Z,100630.81
2019-05-28T06:10:16.566Z,100637.03
2019-05-28T06:12:45.880Z,100639.19
2019-05-28T06:15:15.240Z,100632.97
2019-05-28T06:17:44.530Z,100636.19
2019-05-28T06:20:14.437Z,100625.59
2019-05-28T06:22:43.909Z,100636.38
2019-05-28T06:25:13.427Z,100637.98
2019-05-28T06:27:44.359Z,100643.14
2019-05-28T06:30:13.979Z,100652.42
2019-05-28T06:32:43.344Z,100649.31
2019-05-28T06:35:12.954Z,100663.72
2019-05-28T06:37:42.308Z,100655.45
2019-05-28T06:40:11.778Z,100663.50
2019-05-28T06:42:41.054Z,100662.82
2019-05-28T06:45:10.569Z,100668.08
2019-05-28T06:47:44.833Z,100670.53
2019-05-28T06:50:12.630Z,100669.00
2019-05-28T06:52:42.085Z,100678.09
2019-05-28T06:55:11.604Z,100679.48
2019-05-28T06:57:42.002Z,100679.25
2019-05-28T07:00:11.834Z,100679.69
2019-05-28T07:02:41.116Z,100676.77
2019-05-28T07:05:10.485Z,100676.09
2019-05-28T07:07:39.786Z,100685.34
2019-05-28T07:10:09.318Z,100693.91
2019-05-28T07:12:38.677Z,100694.94
2019-05-28T07:15:08.935Z,100695.24
2019-05-28T07:17:38.246Z,100698.90
2019-05-28T07:20:08.391Z,100702.80
2019-05-28T07:22:37.704Z,100703.23
2019-05-28T07:25:08.067Z,100708.37
2019-05-28T07:27:40.066Z,100701.84
2019-05-28T07:30:09.798Z,100703.59
2019-05-28T07:32:39.112Z,100710.22
2019-05-28T07:35:08.460Z,100706.22
2019-05-28T07:37:37.793Z,100710.12
2019-05-28T07:40:07.371Z,100714.02
2019-05-28T07:42:36.675Z,100710.70
2019-05-28T07:45:07.166Z,100715.31
2019-05-28T07:47:37.553Z,100718.00
2019-05-28T07:50:07.265Z,100721.23
2019-05-28T07:52:36.601Z,100721.33
2019-05-28T07:55:06.239Z,100720.74
2019-05-28T07:57:35.656Z,100726.24
2019-05-28T08:00:07.007Z,100724.70
2019-05-28T08:02:36.360Z,100724.50
2019-05-28T08:05:07.183Z,100722.56
2019-05-28T08:07:36.693Z,100727.59
2019-05-28T08:10:08.406Z,100735.50
2019-05-28T08:12:37.740Z,100738.23
2019-05-28T08:15:08.764Z,100727.70
2019-05-28T08:17:38.074Z,100733.23
2019-05-28T08:20:07.883Z,100739.97
2019-05-28T08:22:42.704Z,100731.73
2019-05-28T08:25:23.547Z,100739.20
2019-05-28T08:27:39.462Z,100738.87
2019-05-28T08:30:09.129Z,100738.20
2019-05-28T08:32:38.432Z,100742.66
2019-05-28T08:35:08.351Z,100743.29
2019-05-28T08:37:37.730Z,100744.80
2019-05-28T08:40:08.210Z,100746.45
2019-05-28T08:42:37.756Z,100748.31
2019-05-28T08:45:08.451Z,100748.38
2019-05-28T08:47:37.804Z,100755.63
2019-05-28T08:50:08.078Z,100755.30
2019-05-28T08:52:37.384Z,100755.98
2019-05-28T08:55:07.177Z,100756.34
2019-05-28T08:57:36.700Z,100763.14
2019-05-28T09:00:10.488Z,100772.66
2019-05-28T09:02:39.779Z,100762.47
2019-05-28T09:05:25.033Z,100771.70
2019-05-28T09:07:40.343Z,100770.13
2019-05-28T09:10:10.499Z,100770.10
2019-05-28T09:12:39.787Z,100775.33
2019-05-28T09:15:09.232Z,100771.45
2019-05-28T09:17:40.493Z,100768.80
2019-05-28T09:20:10.148Z,100779.18
2019-05-28T09:22:39.452Z,100779.11
2019-05-28T09:25:09.012Z,100779.03
2019-05-28T09:27:38.295Z,100787.07
2019-05-28T09:30:09.572Z,100790.93
2019-05-28T09:32:38.981Z,100795.15
2019-05-28T09:35:09.746Z,100797.26
2019-05-28T09:37:40.010Z,100797.33
2019-05-28T09:40:09.933Z,100795.94
2019-05-28T09:42:39.278Z,100799.70
2019-05-28T09:45:21.904Z,100806.45
2019-05-28T09:47:40.717Z,100807.16
2019-05-28T09:50:29.370Z,100812.30
2019-05-28T09:52:54.487Z,100815.18
2019-05-28T09:55:15.450Z,100814.14
2019-05-28T09:57:47.820Z,100819.45
2019-05-28T10:00:21.437Z,100822.25
2019-05-28T10:02:51.995Z,100824.52
2019-05-28T10:05:21.993Z,100828.28
2019-05-28T10:07:51.285Z,100832.55
2019-05-28T10:10:20.762Z,100834.66
2019-05-28T10:12:50.309Z,100842.22
2019-05-28T10:15:20.332Z,100847.02
2019-05-28T10:17:49.672Z,100849.83
2019-05-28T10:20:19.650Z,100857.78
2019-05-28T10:22:49.092Z,100860.66
2019-05-28T10:25:18.664Z,100863.64
2019-05-28T10:28:00.469Z,100869.22
2019-05-28T10:30:19.939Z,100874.83
2019-05-28T10:32:49.227Z,100885.09
2019-05-28T10:35:18.848Z,100879.90
2019-05-28T10:37:48.271Z,100890.04
2019-05-28T10:40:18.110Z,100891.78
2019-05-28T10:42:47.441Z,100896.42
2019-05-28T10:45:17.551Z,100902.08
2019-05-28T10:47:46.876Z,100901.05
2019-05-28T10:50:17.487Z,100903.78
2019-05-28T10:52:46.926Z,100912.70
2019-05-28T10:55:16.539Z,100914.49
2019-05-28T10:57:45.819Z,100922.18
2019-05-28T11:00:15.746Z,100922.61
2019-05-28T11:02:45.054Z,100925.84
2019-05-28T11:05:15.081Z,100926.84
2019-05-28T11:07:44.358Z,100927.62
2019-05-28T11:10:23.659Z,100934.70
2019-05-28T11:12:45.490Z,100932.51
2019-05-28T11:15:16.326Z,100939.80
2019-05-28T11:17:45.623Z,100947.72
2019-05-28T11:20:15.901Z,100949.14
2019-05-28T11:22:45.182Z,100949.50
2019-05-28T11:25:15.918Z,100955.97
2019-05-28T11:27:45.245Z,100953.17
2019-05-28T11:30:15.705Z,100959.09
2019-05-28T11:32:46.738Z,100958.73
2019-05-28T11:35:17.457Z,100965.75
2019-05-28T11:37:47.658Z,100973.31
2019-05-28T11:40:17.601Z,100980.48
2019-05-28T11:42:46.911Z,100981.89
2019-05-28T11:45:18.719Z,100984.11
2019-05-28T11:47:50.868Z,100990.09
2019-05-28T11:50:19.399Z,100988.88
2019-05-28T11:52:49.444Z,100996.95
2019-05-28T11:55:19.077Z,101001.82
2019-05-28T11:57:48.376Z,101001.23
2019-05-28T12:00:18.089Z,101006.55
2019-05-28T12:02:47.400Z,101003.39
2019-05-28T12:05:17.147Z,100998.86
2019-05-28T12:07:46.432Z,101013.79
2019-05-28T12:10:16.281Z,101008.89
2019-05-28T12:12:45.564Z,101020.13
2019-05-28T12:15:16.780Z,101012.36
2019-05-28T12:17:46.359Z,101013.58
2019-05-28T12:20:19.675Z,101025.11
2019-05-28T12:23:08.851Z,101030.27
2019-05-28T12:25:21.929Z,101036.59
2019-05-28T12:27:51.223Z,101041.19
2019-05-28T12:30:21.083Z,101043.87
2019-05-28T12:32:50.443Z,101043.48
2019-05-28T12:35:28.129Z,101047.41
2019-05-28T12:37:51.585Z,101046.14
2019-05-28T12:40:21.442Z,101049.41
2019-05-28T12:42:50.811Z,101049.63
2019-05-28T12:45:34.383Z,101050.75
2019-05-28T12:48:07.484Z,101048.85
2019-05-28T12:50:24.346Z,101057.78
2019-05-28T12:52:53.639Z,101056.86
2019-05-28T12:55:23.344Z,101068.67
2019-05-28T12:57:52.676Z,101078.98
2019-05-28T13:00:22.590Z,101073.40
2019-05-28T13:02:51.862Z,101075.88
2019-05-28T13:05:24.102Z,101077.02
2019-05-28T13:08:07.652Z,101082.46
2019-05-28T13:10:24.962Z,101077.14
2019-05-28T13:12:54.278Z,101087.63
2019-05-28T13:15:23.747Z,101090.31
2019-05-28T13:17:53.241Z,101088.91
2019-05-28T13:20:23.500Z,101092.48
2019-05-28T13:22:52.996Z,101096.09
2019-05-28T13:25:22.308Z,101097.56
2019-05-28T13:27:51.571Z,101098.44
2019-05-28T13:30:21.046Z,101101.91
2019-05-28T13:32:50.565Z,101099.28
2019-05-28T13:35:20.559Z,101102.95
2019-05-28T13:37:50.976Z,101105.27
2019-05-28T13:40:20.750Z,101097.63
2019-05-28T13:42:51.856Z,101107.70
2019-05-28T13:45:21.544Z,101110.45
2019-05-28T13:47:50.887Z,101112.35
2019-05-28T13:50:22.001Z,101112.47
2019-05-28T13:52:51.454Z,101121.61
2019-05-28T13:55:20.948Z,101121.91
2019-05-28T13:57:50.256Z,101126.65
2019-05-28T14:00:20.668Z,101119.56
2019-05-28T14:02:49.961Z,101122.36
2019-05-28T14:05:19.574Z,101131.78
2019-05-28T14:07:48.877Z,101134.37
2019-05-28T14:10:18.327Z,101135.14
2019-05-28T14:12:47.693Z,101139.14
2019-05-28T14:15:18.823Z,101140.91
2019-05-28T14:17:48.149Z,101142.90
2019-05-28T14:20:18.249Z,101146.83
2019-05-28T14:22:47.487Z,101152.95
2019-05-28T14:25:18.317Z,101152.93
2019-05-28T14:27:47.625Z,101161.38
2019-05-28T14:30:19.089Z,101159.23
2019-05-28T14:32:48.568Z,101158.78
2019-05-28T14:35:18.499Z,101155.72
2019-05-28T14:37:48.518Z,101159.72
2019-05-28T14:40:17.985Z,101168.59
2019-05-28T14:42:47.279Z,101170.66
2019-05-28T14:45:16.863Z,101173.72
2019-05-28T14:47:46.222Z,101177.88
2019-05-28T14:50:16.123Z,101177.03
2019-05-28T14:52:45.431Z,101179.00
2019-05-28T14:55:15.082Z,101179.41
2019-05-28T14:57:44.443Z,101183.34
2019-05-28T15:00:17.036Z,101189.80
2019-05-28T15:02:47.930Z,101193.55
2019-05-28T15:05:18.458Z,101199.84
2019-05-28T15:07:47.789Z,101193.80
2019-05-28T15:10:18.731Z,101191.77
2019-05-28T15:12:48.128Z,101199.39
2019-05-28T15:15:34.563Z,101194.95
2019-05-28T15:17:48.779Z,101200.31
2019-05-28T15:20:18.619Z,101207.00
2019-05-28T15:22:48.166Z,101206.20
2019-05-28T15:25:17.652Z,101216.62
2019-05-28T15:27:46.964Z,101213.20
2019-05-28T15:30:16.487Z,101221.34
2019-05-28T15:32:45.765Z,101224.13
2019-05-28T15:35:15.380Z,101228.81
2019-05-28T15:37:44.651Z,101236.05
2019-05-28T15:40:14.411Z,101235.45
2019-05-28T15:42:43.686Z,101242.46
2019-05-28T15:45:13.713Z,101247.63
2019-05-28T15:47:44.933Z,101249.08
2019-05-28T15:50:16.394Z,101253.55
2019-05-28T15:52:45.685Z,101262.41
2019-05-28T15:55:15.235Z,101262.51
2019-05-28T15:57:44.517Z,101266.86
2019-05-28T16:00:19.688Z,101261.58
2019-05-28T16:02:49.120Z,101266.50
2019-05-28T16:05:19.929Z,101270.96
2019-05-28T16:07:49.302Z,101267.45
2019-05-28T16:10:19.191Z,101263.96
2019-05-28T16:12:49.436Z,101270.52
2019-05-28T16:15:18.810Z,101273.77
2019-05-28T16:17:48.114Z,101277.72
2019-05-28T16:20:18.234Z,101279.78
2019-05-28T16:22:47.577Z,101281.23
2019-05-28T16:25:17.194Z,101287.00
2019-05-28T16:27:47.357Z,101290.84
2019-05-28T16:30:17.380Z,101286.95
2019-05-28T16:32:46.692Z,101290.48
2019-05-28T16:35:19.274Z,101301.33
2019-05-28T16:37:48.360Z,101303.45
2019-05-28T16:40:18.777Z,101304.28
2019-05-28T16:42:48.038Z,101307.95
2019-05-28T16:45:17.706Z,101313.07
2019-05-28T16:47:47.009Z,101314.04
2019-05-28T16:50:16.612Z,101317.06
2019-05-28T16:52:46.348Z,101321.43
2019-05-28T16:55:16.697Z,101323.23
2019-05-28T16:57:46.040Z,101324.29
2019-05-28T17:00:15.839Z,101327.19
2019-05-28T17:02:45.368Z,101335.42
2019-05-28T17:05:14.718Z,101329.28
2019-05-28T17:07:44.181Z,101336.48
2019-05-28T17:10:31.608Z,101343.45
2019-05-28T17:12:47.011Z,101347.16
2019-05-28T17:15:16.639Z,101349.44
2019-05-28T17:17:46.778Z,101350.42
2019-05-28T17:20:16.445Z,101349.92
2019-05-28T17:22:45.872Z,101353.50
2019-05-28T17:25:15.919Z,101359.02
2019-05-28T17:27:46.071Z,101361.91
2019-05-28T17:30:23.303Z,101363.20
2019-05-28T17:32:46.752Z,101365.45
2019-05-28T17:35:16.078Z,101370.21
2019-05-28T17:37:45.347Z,101372.56
2019-05-28T17:40:21.637Z,101378.22
2019-05-28T17:42:46.107Z,101379.70
2019-05-28T17:45:17.252Z,101383.89
2019-05-28T17:47:46.557Z,101392.90
2019-05-28T17:50:17.813Z,101395.74
2019-05-28T17:52:51.036Z,101399.41
2019-05-28T17:55:18.209Z,101403.09
2019-05-28T17:57:47.544Z,101410.45
2019-05-28T18:00:16.983Z,101406.81
2019-05-28T18:02:48.452Z,101406.03
2019-05-28T18:05:17.513Z,101420.58
2019-05-28T18:07:46.818Z,101424.75
2019-05-28T18:10:16.331Z,101437.05
2019-05-28T18:12:45.776Z,101436.53
2019-05-28T18:15:15.406Z,101442.62
2019-05-28T18:17:44.671Z,101444.95
2019-05-28T18:20:15.121Z,101447.55
2019-05-28T18:22:44.680Z,101449.61
2019-05-28T18:25:14.142Z,101456.94
2019-05-28T18:27:43.422Z,101463.45
2019-05-28T18:30:13.062Z,101465.69
2019-05-28T18:32:42.348Z,101463.58
2019-05-28T18:35:12.512Z,101473.42
2019-05-28T18:37:41.889Z,101478.66
2019-05-28T18:40:12.282Z,101480.42
2019-05-28T18:42:41.644Z,101485.94
2019-05-28T18:45:11.251Z,101493.34
2019-05-28T18:47:40.840Z,101495.40
2019-05-28T18:50:11.198Z,101499.88
2019-05-28T18:52:40.544Z,101508.11
2019-05-28T18:55:10.126Z,101508.52
2019-05-28T18:57:39.403Z,101511.10
2019-05-28T19:00:09.845Z,101514.73
2019-05-28T19:02:39.908Z,101517.83
2019-05-28T19:05:10.931Z,101523.67
2019-05-28T19:07:40.447Z,101524.53
2019-05-28T19:10:09.813Z,101523.59
2019-05-28T19:12:39.077Z,101525.84
2019-05-28T19:15:09.041Z,101529.22
2019-05-28T19:17:38.492Z,101525.10
2019-05-28T19:20:08.466Z,101531.70
2019-05-28T19:22:37.723Z,101532.96
2019-05-28T19:25:09.071Z,101533.20
2019-05-28T19:27:38.406Z,101541.22
2019-05-28T19:30:09.671Z,101540.05
2019-05-28T19:32:40.001Z,101545.66
2019-05-28T19:35:09.540Z,101550.85
2019-05-28T19:37:39.129Z,101554.86
2019-05-28T19:40:08.611Z,101554.47
2019-05-28T19:42:39.159Z,101570.66
2019-05-28T19:45:08.892Z,101574.44
2019-05-28T19:47:38.372Z,101583.22
2019-05-28T19:50:08.434Z,101585.80
2019-05-28T19:52:37.889Z,101593.98
2019-05-28T19:55:07.611Z,101595.16
2019-05-28T19:57:36.922Z,101595.97
2019-05-28T20:00:07.525Z,101606.70
2019-05-28T20:02:37.718Z,101607.50
2019-05-28T20:05:08.499Z,101605.92
2019-05-28T20:07:37.818Z,101614.48
2019-05-28T20:10:08.147Z,101621.65
2019-05-28T20:12:37.432Z,101629.78
2019-05-28T20:15:11.566Z,101629.39
2019-05-28T20:17:40.930Z,101630.58
2019-05-28T20:20:11.095Z,101641.13
2019-05-28T20:22:40.416Z,101648.48
2019-05-28T20:25:11.277Z,101655.24
2019-05-28T20:27:41.006Z,101658.42
2019-05-28T20:30:11.525Z,101656.84
2019-05-28T20:32:41.770Z,101658.21
2019-05-28T20:35:11.768Z,101658.79
2019-05-28T20:37:41.174Z,101668.36
2019-05-28T20:40:11.056Z,101673.50
2019-05-28T20:42:40.613Z,101670.69
2019-05-28T20:45:11.886Z,101666.91
2019-05-28T20:47:41.382Z,101671.48
2019-05-28T20:50:11.748Z,101677.44
2019-05-28T20:52:43.221Z,101679.40
2019-05-28T20:55:13.037Z,101687.72
2019-05-28T20:57:42.501Z,101679.15
2019-05-28T21:00:12.205Z,101679.33
2019-05-28T21:02:41.562Z,101684.31
2019-05-28T21:05:11.100Z,101682.50
2019-05-28T21:07:41.369Z,101685.84
2019-05-28T21:10:12.158Z,101691.59
2019-05-28T21:12:44.570Z,101692.57
2019-05-28T21:15:15.872Z,101685.18
2019-05-28T21:17:44.260Z,101696.69
2019-05-28T21:20:13.595Z,101697.44
2019-05-28T21:22:42.890Z,101691.88
2019-05-28T21:25:12.241Z,101694.64
2019-05-28T21:27:41.596Z,101695.64
2019-05-28T21:30:11.180Z,101701.38
2019-05-28T21:32:41.396Z,101705.53
2019-05-28T21:35:11.097Z,101704.91
2019-05-28T21:37:40.390Z,101708.86
2019-05-28T21:40:09.892Z,101710.36
2019-05-28T21:42:39.163Z,101715.05
2019-05-28T21:45:08.785Z,101716.99
2019-05-28T21:47:39.747Z,101719.45
2019-05-28T21:50:09.659Z,101724.49
2019-05-28T21:52:38.953Z,101725.41
2019-05-28T21:55:08.756Z,101728.23
2019-05-28T21:57:38.105Z,101735.52
2019-05-28T22:00:14.504Z,101731.30
2019-05-28T22:02:45.679Z,101741.03
2019-05-28T22:05:15.091Z,101737.19
2019-05-28T22:07:45.935Z,101739.16
2019-05-28T22:10:15.350Z,101739.27
2019-05-28T22:12:47.243Z,101743.95
2019-05-28T22:15:16.677Z,101745.53
2019-05-28T22:17:45.977Z,101748.31
2019-05-28T22:20:15.586Z,101751.77
2019-05-28T22:22:46.475Z,101759.25
2019-05-28T22:25:15.778Z,101757.02
2019-05-28T22:27:45.072Z,101759.37
2019-05-28T22:30:15.809Z,101754.59
2019-05-28T22:32:45.261Z,101760.14
2019-05-28T22:35:14.568Z,101762.91
2019-05-28T22:37:43.872Z,101768.06
2019-05-28T22:40:13.500Z,101769.25
2019-05-28T22:42:42.867Z,101774.24
2019-05-28T22:45:12.179Z,101776.45
2019-05-28T22:47:41.521Z,101777.33
2019-05-28T22:50:22.105Z,101773.73
2019-05-28T22:52:42.170Z,101776.13
2019-05-28T22:55:11.462Z,101780.20
2019-05-28T22:57:40.742Z,101779.95
2019-05-28T23:00:11.242Z,101779.34
2019-05-28T23:02:40.585Z,101789.82
2019-05-28T23:05:10.048Z,101785.87
2019-05-28T23:07:39.312Z,101788.52
2019-05-28T23:10:09.885Z,101788.67
2019-05-28T23:12:39.299Z,101789.20
2019-05-28T23:15:11.044Z,101792.35
2019-05-28T23:17:40.331Z,101794.87
2019-05-28T23:20:11.309Z,101792.84
2019-05-28T23:22:40.685Z,101795.77
2019-05-28T23:25:11.571Z,101791.94
2019-05-28T23:27:41.165Z,101798.88
2019-05-28T23:30:23.452Z,101801.80
2019-05-28T23:32:43.873Z,101806.71
2019-05-28T23:35:13.626Z,101811.84
2019-05-28T23:37:42.992Z,101816.48
2019-05-28T23:40:13.378Z,101816.84
2019-05-28T23:42:43.486Z,101822.02
2019-05-28T23:45:13.937Z,101825.41
2019-05-28T23:47:44.081Z,101835.70
2019-05-28T23:50:17.666Z,101831.84
2019-05-28T23:52:45.300Z,101836.91
2019-05-28T23:55:14.787Z,101833.03
2019-05-28T23:57:44.106Z,101843.30
